createdAt,value
2023-04-23T00:02:29.137Z,94.5
2023-04-23T00:07:35.224Z,94.5
2023-04-23T00:12:41.585Z,94.5
2023-04-23T00:17:47.653Z,95.0
2023-04-23T00:28:00.086Z,95.0
2023-04-23T00:33:06.340Z,95.0
2023-04-23T00:38:11.501Z,95.0
2023-04-23T00:43:17.785Z,95.0
2023-04-23T00:48:23.915Z,95.0
2023-04-23T00:53:29.158Z,95.0
2023-04-23T00:58:35.351Z,95.0
2023-04-23T01:03:41.711Z,95.0
2023-04-23T01:08:47.771Z,95.0
2023-04-23T01:13:54.000Z,95.0
2023-04-23T01:19:00.193Z,95.0
2023-04-23T01:24:06.410Z,95.0
2023-04-23T01:29:12.614Z,95.5
2023-04-23T01:34:18.821Z,95.5
2023-04-23T01:39:25.021Z,95.5
2023-04-23T01:44:31.224Z,95.5
2023-04-23T01:49:37.435Z,95.5
2023-04-23T01:54:43.786Z,95.5
2023-04-23T01:59:49.846Z,95.5
2023-04-23T02:04:56.066Z,96.0
2023-04-23T02:10:02.391Z,96.0
2023-04-23T02:15:08.492Z,96.0
2023-04-23T02:20:14.774Z,95.5
2023-04-23T02:25:20.901Z,96.0
2023-04-23T02:30:27.114Z,96.0
2023-04-23T02:35:33.406Z,96.0
2023-04-23T02:40:38.582Z,96.0
2023-04-23T02:45:44.756Z,96.0
2023-04-23T02:50:49.988Z,96.0
2023-04-23T02:55:56.197Z,96.0
2023-04-23T03:01:02.467Z,96.0
2023-04-23T03:06:08.623Z,96.0
2023-04-23T03:11:14.812Z,96.0
2023-04-23T03:16:21.089Z,96.0
2023-04-23T03:21:27.228Z,96.0
2023-04-23T03:26:33.452Z,96.0
2023-04-23T03:31:39.659Z,96.0
2023-04-23T03:36:45.861Z,96.0
2023-04-23T03:41:52.089Z,96.0
2023-04-23T03:46:58.274Z,96.0
2023-04-23T03:52:04.491Z,96.0
2023-04-23T03:57:10.696Z,96.5
2023-04-23T04:02:17.000Z,96.5
2023-04-23T04:07:23.112Z,96.5
2023-04-23T04:12:29.320Z,96.5
2023-04-23T04:17:35.556Z,96.5
2023-04-23T04:22:41.737Z,96.5
2023-04-23T04:27:47.952Z,96.5
2023-04-23T04:32:54.220Z,96.5
2023-04-23T04:37:59.387Z,96.5
2023-04-23T04:43:05.605Z,96.5
2023-04-23T04:48:10.851Z,96.5
2023-04-23T04:53:17.034Z,97.0
2023-04-23T04:58:23.239Z,97.0
2023-04-23T05:03:29.616Z,97.0
2023-04-23T05:08:35.659Z,97.0
2023-04-23T05:13:41.867Z,97.0
2023-04-23T05:18:48.099Z,97.0
2023-04-23T05:23:54.517Z,97.0
2023-04-23T05:29:00.537Z,97.0
2023-04-23T05:34:06.724Z,97.0
2023-04-23T05:39:12.901Z,97.0
2023-04-23T05:44:19.108Z,97.0
2023-04-23T05:49:25.316Z,97.0
2023-04-23T05:54:31.518Z,97.0
2023-04-23T05:59:37.733Z,97.0
2023-04-23T06:04:44.561Z,97.0
2023-04-23T06:09:50.151Z,97.5
2023-04-23T06:14:56.370Z,97.5
2023-04-23T06:20:02.573Z,97.5
2023-04-23T06:25:08.785Z,97.5
2023-04-23T06:30:14.978Z,97.5
2023-04-23T06:35:20.247Z,97.5
2023-04-23T06:40:26.427Z,97.0
2023-04-23T06:45:32.643Z,97.0
2023-04-23T06:50:38.842Z,97.0
2023-04-23T06:55:45.044Z,97.0
2023-04-23T07:00:51.339Z,97.0
2023-04-23T07:05:57.505Z,96.5
2023-04-23T07:11:03.707Z,96.5
2023-04-23T07:16:09.972Z,96.0
2023-04-23T07:21:16.234Z,95.5
2023-04-23T07:26:22.339Z,95.0
2023-04-23T07:31:28.603Z,94.5
2023-04-23T07:36:34.846Z,94.0
2023-04-23T07:41:40.966Z,93.5
2023-04-23T07:46:47.202Z,93.0
2023-04-23T07:51:53.392Z,92.0
2023-04-23T07:56:59.588Z,92.0
2023-04-23T08:02:05.877Z,92.0
2023-04-23T08:07:12.013Z,91.5
2023-04-23T08:12:18.216Z,91.0
2023-04-23T08:17:24.444Z,90.5
2023-04-23T08:22:29.658Z,90.0
2023-04-23T08:27:35.869Z,89.0
2023-04-23T08:32:41.153Z,89.0
2023-04-23T08:37:47.318Z,88.5
2023-04-23T08:42:52.562Z,88.0
2023-04-23T08:48:01.529Z,87.0
2023-04-23T08:53:04.973Z,86.5
2023-04-23T08:58:11.165Z,86.0
2023-04-23T09:03:17.470Z,85.5
2023-04-23T09:08:23.588Z,85.0
2023-04-23T09:13:29.809Z,84.5
2023-04-23T09:18:36.013Z,83.5
2023-04-23T09:23:42.212Z,83.5
2023-04-23T09:28:50.073Z,82.5
2023-04-23T09:33:54.685Z,82.0
2023-04-23T09:39:00.863Z,81.5
2023-04-23T09:44:07.049Z,80.5
2023-04-23T09:49:13.255Z,79.0
2023-04-23T09:54:19.461Z,78.0
2023-04-23T09:59:36.116Z,78.5
2023-04-23T10:04:32.067Z,77.5
2023-04-23T10:09:38.089Z,77.5
2023-04-23T10:14:44.296Z,76.5
2023-04-23T10:19:50.505Z,76.5
2023-04-23T10:24:56.734Z,76.0
2023-04-23T10:30:03.200Z,75.5
2023-04-23T10:35:07.176Z,75.0
2023-04-23T10:40:13.404Z,74.5
2023-04-23T10:45:24.782Z,74.0
2023-04-23T10:50:25.814Z,74.0
2023-04-23T10:55:32.019Z,74.0
2023-04-23T11:00:38.253Z,73.0
2023-04-23T11:05:44.437Z,73.0
2023-04-23T11:10:50.644Z,73.0
2023-04-23T11:15:56.890Z,73.0
2023-04-23T11:21:03.069Z,74.5
2023-04-23T11:26:09.280Z,74.0
2023-04-23T11:31:15.482Z,74.0
2023-04-23T11:41:27.899Z,73.0
2023-04-23T11:46:34.145Z,72.5
2023-04-23T11:51:40.329Z,72.5
2023-04-23T11:56:46.525Z,73.0
2023-04-23T12:01:52.750Z,72.5
2023-04-23T12:06:59.038Z,72.5
2023-04-23T12:12:05.153Z,72.0
2023-04-23T12:17:11.368Z,72.0
2023-04-23T12:22:16.592Z,72.0
2023-04-23T12:27:22.818Z,72.0
2023-04-23T12:32:28.068Z,71.5
2023-04-23T12:37:34.255Z,71.5
2023-04-23T12:42:40.470Z,71.0
2023-04-23T12:47:46.698Z,70.0
2023-04-23T12:52:52.884Z,69.5
2023-04-23T13:03:05.422Z,70.0
2023-04-23T13:08:11.505Z,69.5
2023-04-23T13:13:17.716Z,69.0
2023-04-23T13:18:23.936Z,69.0
2023-04-23T13:23:30.129Z,68.0
2023-04-23T13:28:36.353Z,68.0
2023-04-23T13:33:42.545Z,67.5
2023-04-23T13:38:48.767Z,67.5
2023-04-23T13:43:54.974Z,67.5
2023-04-23T13:49:01.258Z,68.0
2023-04-23T13:54:07.392Z,68.0
2023-04-23T13:59:20.166Z,68.0
2023-04-23T14:04:19.833Z,68.0
2023-04-23T14:09:26.033Z,68.0
2023-04-23T14:14:32.213Z,67.5
2023-04-23T14:19:38.436Z,67.5
2023-04-23T14:24:43.667Z,68.0
2023-04-23T14:29:49.870Z,68.0
2023-04-23T14:34:55.108Z,68.0
2023-04-23T14:40:01.315Z,68.0
2023-04-23T14:45:06.558Z,68.5
2023-04-23T14:50:12.784Z,68.5
2023-04-23T14:55:18.966Z,69.0
2023-04-23T15:00:25.178Z,70.5
2023-04-23T15:05:31.383Z,71.5
2023-04-23T15:10:37.608Z,72.5
2023-04-23T15:15:44.982Z,73.5
2023-04-23T15:20:50.015Z,75.0
2023-04-23T15:25:56.226Z,76.0
2023-04-23T15:31:02.443Z,77.0
2023-04-23T15:36:08.690Z,78.0
2023-04-23T15:41:14.861Z,79.0
2023-04-23T15:51:27.262Z,80.5
2023-04-23T15:56:33.474Z,81.0
2023-04-23T16:01:39.738Z,82.0
2023-04-23T16:06:45.890Z,83.0
2023-04-23T16:11:52.104Z,83.5
2023-04-23T16:16:58.381Z,84.0
2023-04-23T16:22:04.517Z,84.5
2023-04-23T16:27:10.729Z,84.5
2023-04-23T16:32:16.929Z,85.0
2023-04-23T16:37:22.222Z,85.5
2023-04-23T16:42:28.369Z,86.0
2023-04-23T16:47:34.583Z,86.0
2023-04-23T16:52:40.793Z,86.5
2023-04-23T16:57:46.018Z,86.5
2023-04-23T17:02:52.399Z,87.0
2023-04-23T17:07:58.443Z,87.0
2023-04-23T17:13:04.665Z,87.5
2023-04-23T17:18:12.452Z,87.5
2023-04-23T17:23:17.062Z,88.0
2023-04-23T17:28:23.284Z,88.0
2023-04-23T17:33:29.550Z,88.5
2023-04-23T17:38:35.691Z,89.0
2023-04-23T17:43:41.893Z,89.0
2023-04-23T17:48:48.120Z,89.5
2023-04-23T17:53:54.317Z,89.5
2023-04-23T17:59:00.578Z,89.5
2023-04-23T18:04:07.069Z,89.5
2023-04-23T18:09:12.937Z,89.5
2023-04-23T18:14:19.146Z,89.5
2023-04-23T18:19:25.354Z,90.0
2023-04-23T18:24:31.556Z,90.0
2023-04-23T18:29:37.768Z,90.0
2023-04-23T18:34:43.986Z,90.0
2023-04-23T18:39:50.207Z,90.0
2023-04-23T18:44:55.471Z,90.5
2023-04-23T18:50:01.680Z,90.5
2023-04-23T18:55:07.899Z,90.5
2023-04-23T19:00:13.118Z,90.5
2023-04-23T19:05:19.360Z,90.5
2023-04-23T19:10:25.536Z,91.0
2023-04-23T19:15:31.741Z,91.0
2023-04-23T19:20:37.949Z,91.0
2023-04-23T19:25:44.196Z,91.0
2023-04-23T19:30:50.394Z,91.5
2023-04-23T19:35:56.587Z,91.0
2023-04-23T19:41:02.811Z,91.0
2023-04-23T19:46:09.025Z,91.0
2023-04-23T19:51:15.239Z,90.5
2023-04-23T19:56:21.453Z,90.5
2023-04-23T20:01:27.787Z,90.5
2023-04-23T20:06:33.888Z,90.0
2023-04-23T20:11:40.115Z,90.0
2023-04-23T20:16:46.458Z,90.5
2023-04-23T20:21:52.503Z,90.5
2023-04-23T20:26:58.768Z,90.5
2023-04-23T20:32:04.948Z,91.0
2023-04-23T20:37:11.172Z,91.0
2023-04-23T20:42:17.346Z,91.5
2023-04-23T20:47:22.603Z,91.5
2023-04-23T20:52:28.781Z,91.5
2023-04-23T20:57:34.992Z,92.0
2023-04-23T21:02:40.342Z,92.0
2023-04-23T21:07:46.447Z,92.5
2023-04-23T21:12:52.645Z,92.5
2023-04-23T21:17:58.890Z,92.5
2023-04-23T21:23:05.066Z,92.5
2023-04-23T21:28:11.263Z,92.5
2023-04-23T21:33:17.495Z,92.5
2023-04-23T21:38:23.675Z,93.0
2023-04-23T21:43:29.886Z,92.5
2023-04-23T21:48:36.086Z,92.5
2023-04-23T21:53:42.293Z,92.5
2023-04-23T21:58:48.521Z,92.5
2023-04-23T22:03:54.838Z,92.5
2023-04-23T22:09:00.941Z,92.5
2023-04-23T22:14:07.128Z,92.5
2023-04-23T22:19:13.349Z,92.5
2023-04-23T22:24:19.617Z,92.5
2023-04-23T22:29:25.756Z,92.5
2023-04-23T22:34:31.968Z,92.5
2023-04-23T22:39:38.177Z,92.5
2023-04-23T22:44:44.375Z,92.5
2023-04-23T22:49:49.610Z,92.5
2023-04-23T22:54:55.898Z,92.5
2023-04-23T23:00:01.071Z,92.5
2023-04-23T23:05:07.274Z,92.5
2023-04-23T23:10:13.480Z,93.0
2023-04-23T23:15:19.695Z,93.0
2023-04-23T23:20:25.915Z,93.0
2023-04-23T23:25:32.107Z,93.0
2023-04-23T23:30:38.319Z,93.0
2023-04-23T23:35:44.533Z,93.0
2023-04-23T23:40:50.727Z,93.0
2023-04-23T23:45:56.933Z,92.5
2023-04-23T23:51:03.152Z,92.5
2023-04-23T23:56:09.368Z,92.5
